Clipper Saga — LAFY6 — position and weather

sailwx.info

Track history (hours):
 
Tides and Currents Weather Stations Pressure Air Temp Water Temp Dewpoint Dewpoint Depression Visibility Wind Speed Wind Dir Waves Ship Positions

Clipper Saga

Last reported at 2014-Sep-03 01:31 UTC. Time now 2014-Sep-03 02:11 UTC.
Position N 54°40' W 001°02'.

Length 89 m; draft 5.9 m.

Type: Ship (hazmat cat C). MMSI: 246657008.

Date/timePositionNaut miles runAvg speedWind from/ knotsBaromVisibWave heightAir tempDewpointWater temp
2014-Sep-03 01:31N 54°40' W 001°02'0 0.0
2014-Sep-03 00:31N 54°40' W 001°02'0 0.0
2014-Sep-02 23:28N 54°40' W 001°02'0 0.0
2014-Sep-02 22:31N 54°40' W 001°02'0 0.0
2014-Sep-02 21:31N 54°40' W 001°02'0 0.0
2014-Sep-02 20:31N 54°40' W 001°02'0 0.0
2014-Sep-02 19:31N 54°40' W 001°02'0 0.0
2014-Sep-02 18:31N 54°40' W 001°02'0 0.0
2014-Sep-02 17:16N 54°40' W 001°02'0 0.0
2014-Sep-02 16:31N 54°40' W 001°02'0 0.0
2014-Sep-02 15:31N 54°40' W 001°02'0 0.0
2014-Sep-02 14:16N 54°40' W 001°02'0 0.0
2014-Sep-02 13:22N 54°40' W 001°02'0 0.0
2014-Sep-02 12:31N 54°40' W 001°02'0 0.0
2014-Sep-02 11:31N 54°40' W 001°02'0 0.0
2014-Sep-02 10:31N 54°40' W 001°02'0 0.0
2014-Sep-02 09:25N 54°40' W 001°02'0 0.0
2014-Sep-02 08:13N 54°40' W 001°02'0 0.0
2014-Sep-02 07:25N 54°40' W 001°02'0 0.0
2014-Sep-02 06:28N 54°40' W 001°02'0 0.0
2014-Sep-02 05:31N 54°40' W 001°02'0 0.0
2014-Sep-02 04:31N 54°40' W 001°02'0 0.0
2014-Sep-02 03:31N 54°40' W 001°02'0 0.0
2014-Sep-02 02:31N 54°40' W 001°02'0 0.0
2014-Sep-02 01:31N 54°40' W 001°02'0 0.0
2014-Sep-02 00:31N 54°40' W 001°02'0 0.0
2014-Sep-01 23:31N 54°40' W 001°02'0 0.0
2014-Sep-01 22:31N 54°40' W 001°02'0 0.0
2014-Sep-01 21:31N 54°40' W 001°02'0 0.0
2014-Sep-01 20:31N 54°40' W 001°02'0 0.0
2014-Sep-01 19:31N 54°40' W 001°02'0 0.0
2014-Sep-01 18:31N 54°40' W 001°02'0 0.0
2014-Sep-01 17:31N 54°40' W 001°02'0 0.0
2014-Sep-01 16:28N 54°40' W 001°02'0 0.0
2014-Sep-01 15:31N 54°40' W 001°02'1 1.3
2014-Sep-01 14:33N 54°40' W 000°60'9 9.0
2014-Sep-01 13:32N 54°41' W 000°44'7 6.7
2014-Sep-01 12:33N 54°41' W 000°33'7 6.6
2014-Sep-01 11:33N 54°42' W 000°21'8 7.6
2014-Sep-01 10:34N 54°48' W 000°12'11 8.5
2014-Sep-01 09:17N 54°53' E 000°05'18 8.1
2014-Sep-01 07:06N 55°03' E 000°30'5 8.1
2014-Sep-01 06:29N 55°06' E 000°36'28 5.3
2014-Sep-01 01:09N 55°01' W 000°13'5 8.3
2014-Sep-01 00:34N 54°58' W 000°20'8 8.3
2014-Aug-31 23:33N 54°53' W 000°32'8 8.4
2014-Aug-31 22:33N 54°48' W 000°44'1211.8
2014-Aug-31 21:33N 54°42' W 001°01'6 0.3
2014-Aug-31 03:21N 54°39' W 001°09'910.9
2014-Aug-31 02:33N 54°47' W 001°05'1111.1
2014-Aug-31 01:33N 54°58' W 001°07'6510.8
2014-Aug-30 19:30N 55°55' W 002°03'1111.2
2014-Aug-30 18:33N 56°01' W 002°19'1111.3
2014-Aug-30 17:33N 56°06' W 002°38'1111.4
2014-Aug-30 16:33N 56°04' W 002°58'1111.2
2014-Aug-30 15:33N 56°02' W 003°17'1010.2
2014-Aug-30 14:33N 56°02' W 003°36'3 3.2
2014-Aug-30 13:32N 56°02' W 003°41'0 0.0
2014-Aug-30 12:32N 56°02' W 003°41'0 0.0
2014-Aug-30 11:32N 56°02' W 003°41'0 0.0
2014-Aug-29 22:17N 56°02' W 003°41'0 0.0
2014-Aug-29 21:33N 56°02' W 003°41'0 0.2
2014-Aug-29 20:33N 56°02' W 003°41'4 4.3
2014-Aug-29 19:33N 56°02' W 003°33'10 9.7
2014-Aug-29 18:33N 56°02' W 003°16'10 9.5
2014-Aug-29 17:33N 56°04' W 002°60'1111.3
2014-Aug-29 16:33N 56°07' W 002°40'1211.9
2014-Aug-29 15:33N 56°10' W 002°19'37612.0
2014-Aug-28 08:21N 57°41' E 008°49'911.6
2014-Aug-28 07:33N 57°43' E 009°06'1211.7
2014-Aug-28 06:33N 57°46' E 009°27'1211.8
2014-Aug-28 05:33N 57°49' E 009°48'1212.0
2014-Aug-28 04:33N 57°50' E 010°11'1211.9
2014-Aug-28 03:33N 57°51' E 010°33'1110.9
2014-Aug-28 02:33N 57°46' E 010°52'1111.0
2014-Aug-28 01:34N 57°40' E 010°35'0 0.1
2014-Aug-28 00:32N 57°40' E 010°35'0 0.1
2014-Aug-27 23:33N 57°40' E 010°35'10 9.6
2014-Aug-27 22:33N 57°48' E 010°46'1212.3
2014-Aug-27 21:33N 58°00' E 010°44'1312.7
2014-Aug-27 20:32N 58°13' E 010°43'1212.3
2014-Aug-27 19:33N 58°25' E 010°41'1212.5
2014-Aug-27 18:33N 58°38' E 010°40'1313.0
2014-Aug-27 17:33N 58°51' E 010°38'1312.8
2014-Aug-27 16:33N 59°03' E 010°34'9 8.9
2014-Aug-27 15:33N 59°10' E 010°24'0 0.3
2014-Aug-27 14:33N 59°10' E 010°23'0 0.0
2014-Aug-27 13:33N 59°10' E 010°23'0 0.0
2014-Aug-27 12:33N 59°10' E 010°23'0 0.0
2014-Aug-27 11:33N 59°10' E 010°23'0 0.0
2014-Aug-27 10:33N 59°10' E 010°23'0 0.0
2014-Aug-27 09:33N 59°10' E 010°23'0 0.0
2014-Aug-27 08:33N 59°10' E 010°23'6 5.6
2014-Aug-27 07:34N 59°07' E 010°32'7 6.5
2014-Aug-27 06:33N 59°01' E 010°36'7 7.1
2014-Aug-27 05:33N 58°54' E 010°29'4310.6
2014-Aug-27 01:28N 58°19' E 009°40'1011.2
2014-Aug-27 00:33N 58°11' E 009°30'1211.5
2014-Aug-26 23:33N 58°01' E 009°17'1212.0
2014-Aug-26 22:33N 57°52' E 009°04'1212.1
2014-Aug-26 21:32N 57°42' E 008°50'1712.0
2014-Aug-26 20:06N 57°28' E 008°32'24211.1
2014-Aug-25 22:21N 53°59' E 004°53'2411.3
2014-Aug-25 20:15N 53°35' E 004°50'811.6
2014-Aug-25 19:33N 53°28' E 004°45'4412.9
2014-Aug-25 16:08N 52°49' E 004°12'2312.8
2014-Aug-25 14:21N 52°29' E 003°54'1113.4
2014-Aug-25 13:33N 52°18' E 003°52'1313.2
2014-Aug-25 12:33N 52°05' E 003°55'1010.1
2014-Aug-25 11:33N 51°59' E 004°07'9 8.8
2014-Aug-25 10:33N 51°53' E 004°18'0 0.0
2014-Aug-25 09:30N 51°53' E 004°18'0 0.0
2014-Aug-25 08:30N 51°53' E 004°18'0 0.0
2014-Aug-25 07:27N 51°53' E 004°18'0 0.0
2014-Aug-25 06:27N 51°53' E 004°18'0 0.0
2014-Aug-25 05:33N 51°53' E 004°18'0 0.0
2014-Aug-25 04:33N 51°53' E 004°18'0 0.0
2014-Aug-25 03:33N 51°53' E 004°18'0 0.0
2014-Aug-25 02:33N 51°53' E 004°18'0 0.0
2014-Aug-25 01:33N 51°53' E 004°18'0 0.0
2014-Aug-25 00:27N 51°53' E 004°18'0 0.0
2014-Aug-24 23:33N 51°53' E 004°18'0 0.0
2014-Aug-24 22:30N 51°53' E 004°18'0 0.0
2014-Aug-24 21:33N 51°53' E 004°18'5 4.8
2014-Aug-24 20:33N 51°56' E 004°12'10 9.8
2014-Aug-24 19:33N 51°60' E 003°58'9 8.7
2014-Aug-24 18:29N 51°57' E 003°43'25 1.6
2014-Aug-24 02:32N 51°46' E 003°07'  
Track history (hours):
 
Tides and Currents Weather Stations Pressure Air Temp Water Temp Dewpoint Dewpoint Depression Visibility Wind Speed Wind Dir Waves Ship Positions

Clipper Saga

Last reported at 2014-Sep-03 01:31 UTC. Time now 2014-Sep-03 02:11 UTC.
Position N 54°40' W 001°02'.

Length 89 m; draft 5.9 m.

Type: Ship (hazmat cat C). MMSI: 246657008.

Date/timePositionNaut miles runAvg speedWind from/ knotsBaromVisibWave heightAir tempDewpointWater temp
2014-Sep-03 01:31N 54°40' W 001°02'0 0.0
2014-Sep-03 00:31N 54°40' W 001°02'0 0.0
2014-Sep-02 23:28N 54°40' W 001°02'0 0.0
2014-Sep-02 22:31N 54°40' W 001°02'0 0.0
2014-Sep-02 21:31N 54°40' W 001°02'0 0.0
2014-Sep-02 20:31N 54°40' W 001°02'0 0.0
2014-Sep-02 19:31N 54°40' W 001°02'0 0.0
2014-Sep-02 18:31N 54°40' W 001°02'0 0.0
2014-Sep-02 17:16N 54°40' W 001°02'0 0.0
2014-Sep-02 16:31N 54°40' W 001°02'0 0.0
2014-Sep-02 15:31N 54°40' W 001°02'0 0.0
2014-Sep-02 14:16N 54°40' W 001°02'0 0.0
2014-Sep-02 13:22N 54°40' W 001°02'0 0.0
2014-Sep-02 12:31N 54°40' W 001°02'0 0.0
2014-Sep-02 11:31N 54°40' W 001°02'0 0.0
2014-Sep-02 10:31N 54°40' W 001°02'0 0.0
2014-Sep-02 09:25N 54°40' W 001°02'0 0.0
2014-Sep-02 08:13N 54°40' W 001°02'0 0.0
2014-Sep-02 07:25N 54°40' W 001°02'0 0.0
2014-Sep-02 06:28N 54°40' W 001°02'0 0.0
2014-Sep-02 05:31N 54°40' W 001°02'0 0.0
2014-Sep-02 04:31N 54°40' W 001°02'0 0.0
2014-Sep-02 03:31N 54°40' W 001°02'0 0.0
2014-Sep-02 02:31N 54°40' W 001°02'0 0.0
2014-Sep-02 01:31N 54°40' W 001°02'0 0.0
2014-Sep-02 00:31N 54°40' W 001°02'0 0.0
2014-Sep-01 23:31N 54°40' W 001°02'0 0.0
2014-Sep-01 22:31N 54°40' W 001°02'0 0.0
2014-Sep-01 21:31N 54°40' W 001°02'0 0.0
2014-Sep-01 20:31N 54°40' W 001°02'0 0.0
2014-Sep-01 19:31N 54°40' W 001°02'0 0.0
2014-Sep-01 18:31N 54°40' W 001°02'0 0.0
2014-Sep-01 17:31N 54°40' W 001°02'0 0.0
2014-Sep-01 16:28N 54°40' W 001°02'0 0.0
2014-Sep-01 15:31N 54°40' W 001°02'1 1.3
2014-Sep-01 14:33N 54°40' W 000°60'9 9.0
2014-Sep-01 13:32N 54°41' W 000°44'7 6.7
2014-Sep-01 12:33N 54°41' W 000°33'7 6.6
2014-Sep-01 11:33N 54°42' W 000°21'8 7.6
2014-Sep-01 10:34N 54°48' W 000°12'11 8.5
2014-Sep-01 09:17N 54°53' E 000°05'18 8.1
2014-Sep-01 07:06N 55°03' E 000°30'5 8.1
2014-Sep-01 06:29N 55°06' E 000°36'28 5.3
2014-Sep-01 01:09N 55°01' W 000°13'5 8.3
2014-Sep-01 00:34N 54°58' W 000°20'8 8.3
2014-Aug-31 23:33N 54°53' W 000°32'8 8.4
2014-Aug-31 22:33N 54°48' W 000°44'1211.8
2014-Aug-31 21:33N 54°42' W 001°01'6 0.3
2014-Aug-31 03:21N 54°39' W 001°09'910.9
2014-Aug-31 02:33N 54°47' W 001°05'1111.1
2014-Aug-31 01:33N 54°58' W 001°07'6510.8
2014-Aug-30 19:30N 55°55' W 002°03'1111.2
2014-Aug-30 18:33N 56°01' W 002°19'1111.3
2014-Aug-30 17:33N 56°06' W 002°38'1111.4
2014-Aug-30 16:33N 56°04' W 002°58'1111.2
2014-Aug-30 15:33N 56°02' W 003°17'1010.2
2014-Aug-30 14:33N 56°02' W 003°36'3 3.2
2014-Aug-30 13:32N 56°02' W 003°41'0 0.0
2014-Aug-30 12:32N 56°02' W 003°41'0 0.0
2014-Aug-30 11:32N 56°02' W 003°41'0 0.0
2014-Aug-29 22:17N 56°02' W 003°41'0 0.0
2014-Aug-29 21:33N 56°02' W 003°41'0 0.2
2014-Aug-29 20:33N 56°02' W 003°41'4 4.3
2014-Aug-29 19:33N 56°02' W 003°33'10 9.7
2014-Aug-29 18:33N 56°02' W 003°16'10 9.5
2014-Aug-29 17:33N 56°04' W 002°60'1111.3
2014-Aug-29 16:33N 56°07' W 002°40'1211.9
2014-Aug-29 15:33N 56°10' W 002°19'37612.0
2014-Aug-28 08:21N 57°41' E 008°49'911.6
2014-Aug-28 07:33N 57°43' E 009°06'1211.7
2014-Aug-28 06:33N 57°46' E 009°27'1211.8
2014-Aug-28 05:33N 57°49' E 009°48'1212.0
2014-Aug-28 04:33N 57°50' E 010°11'1211.9
2014-Aug-28 03:33N 57°51' E 010°33'1110.9
2014-Aug-28 02:33N 57°46' E 010°52'1111.0
2014-Aug-28 01:34N 57°40' E 010°35'0 0.1
2014-Aug-28 00:32N 57°40' E 010°35'0 0.1
2014-Aug-27 23:33N 57°40' E 010°35'10 9.6
2014-Aug-27 22:33N 57°48' E 010°46'1212.3
2014-Aug-27 21:33N 58°00' E 010°44'1312.7
2014-Aug-27 20:32N 58°13' E 010°43'1212.3
2014-Aug-27 19:33N 58°25' E 010°41'1212.5
2014-Aug-27 18:33N 58°38' E 010°40'1313.0
2014-Aug-27 17:33N 58°51' E 010°38'1312.8
2014-Aug-27 16:33N 59°03' E 010°34'9 8.9
2014-Aug-27 15:33N 59°10' E 010°24'0 0.3
2014-Aug-27 14:33N 59°10' E 010°23'0 0.0
2014-Aug-27 13:33N 59°10' E 010°23'0 0.0
2014-Aug-27 12:33N 59°10' E 010°23'0 0.0
2014-Aug-27 11:33N 59°10' E 010°23'0 0.0
2014-Aug-27 10:33N 59°10' E 010°23'0 0.0
2014-Aug-27 09:33N 59°10' E 010°23'0 0.0
2014-Aug-27 08:33N 59°10' E 010°23'6 5.6
2014-Aug-27 07:34N 59°07' E 010°32'7 6.5
2014-Aug-27 06:33N 59°01' E 010°36'7 7.1
2014-Aug-27 05:33N 58°54' E 010°29'4310.6
2014-Aug-27 01:28N 58°19' E 009°40'1011.2
2014-Aug-27 00:33N 58°11' E 009°30'1211.5
2014-Aug-26 23:33N 58°01' E 009°17'1212.0
2014-Aug-26 22:33N 57°52' E 009°04'1212.1
2014-Aug-26 21:32N 57°42' E 008°50'1712.0
2014-Aug-26 20:06N 57°28' E 008°32'24211.1
2014-Aug-25 22:21N 53°59' E 004°53'2411.3
2014-Aug-25 20:15N 53°35' E 004°50'811.6
2014-Aug-25 19:33N 53°28' E 004°45'4412.9
2014-Aug-25 16:08N 52°49' E 004°12'2312.8
2014-Aug-25 14:21N 52°29' E 003°54'1113.4
2014-Aug-25 13:33N 52°18' E 003°52'1313.2
2014-Aug-25 12:33N 52°05' E 003°55'1010.1
2014-Aug-25 11:33N 51°59' E 004°07'9 8.8
2014-Aug-25 10:33N 51°53' E 004°18'0 0.0
2014-Aug-25 09:30N 51°53' E 004°18'0 0.0
2014-Aug-25 08:30N 51°53' E 004°18'0 0.0
2014-Aug-25 07:27N 51°53' E 004°18'0 0.0
2014-Aug-25 06:27N 51°53' E 004°18'0 0.0
2014-Aug-25 05:33N 51°53' E 004°18'0 0.0
2014-Aug-25 04:33N 51°53' E 004°18'0 0.0
2014-Aug-25 03:33N 51°53' E 004°18'0 0.0
2014-Aug-25 02:33N 51°53' E 004°18'0 0.0
2014-Aug-25 01:33N 51°53' E 004°18'0 0.0
2014-Aug-25 00:27N 51°53' E 004°18'0 0.0
2014-Aug-24 23:33N 51°53' E 004°18'0 0.0
2014-Aug-24 22:30N 51°53' E 004°18'0 0.0
2014-Aug-24 21:33N 51°53' E 004°18'5 4.8
2014-Aug-24 20:33N 51°56' E 004°12'10 9.8
2014-Aug-24 19:33N 51°60' E 003°58'9 8.7
2014-Aug-24 18:29N 51°57' E 003°43'25 1.6
2014-Aug-24 02:32N 51°46' E 003°07'  

Dump ship's entire track history